< < Back
Terminal Aerodrome Forecast


Current Version              Previous Versions:   1  2  3  4  5  6  7  8  9  

Terminal Aerodrome Forecast

075
FTUS42 KGSP 310537
TAFAND
TAF
KAND 310537Z 3106/0106 00000KT P6SM FEW210
     FM311900 25005KT P6SM SCT060 BKN090
     FM010200 29009KT P6SM VCSH BKN060=



Latest METAR

129
SAUS70 KWBC 310600 RRE
MTRAND
METAR KAND 310556Z AUTO 00000KT 10SM CLR 07/06 A2996 RMK AO2 SLP142
T00720056 10117 20061 55004


USA.gov is the U.S. government's official web portal to all federal, state and local government web resources and services.